Carmel-by-the-Sea, CA

12:43 AM PDT on August 23, 2014 (GMT -0700)
Monterey Peninsula | Change Station
CLOSE
Current Station
Airport
Location: Monterey,
Elevation: 253 ft
Nearby Weather Stations

Elev 253 ft 36.59 °N, 121.84 °W | Updated 38 minutes ago

Overcast
Overcast
61 °F
Feels Like 61 °F
N
4
Wind Variable Wind from Variable

Today
High -- | Low -- °F
--% Chance of Precip.
Yesterday
High -- | Low -- °F
Precip. -- in
6:31 AM 7:48 PM
Waning Crescent, 5% visible
Pressure 29.96 in
Visibility 10.0 miles
Clouds Overcast 1100 ft
Dew Point 55 °F
Humidity 82%
Rainfall 0.00 in
Snow Depth Not available.
UV 0 out of 12
Pollen 5.70 out of 12
Air Quality Not available.
Flu Activity Not available.
SPECI KMRY 230705Z AUTO VRB03KT 10SM OVC011 16/13 A2996 RMK AO2

More Conditions Fewer Conditions

Pressure 29.96 in
Visibility 10.0 miles
Clouds Overcast 1100 ft
Dew Point 55 °F
Humidity 82%
Rainfall 0.00 in
Snow Depth Not available.
UV 0 out of 12
Pollen 5.70 out of 12
Air Quality Not available.
Flu Activity Not available.
SPECI KMRY 230705Z AUTO VRB03KT 10SM OVC011 16/13 A2996 RMK AO2

More Conditions Fewer Conditions

10-Day Weather Forecast

Almanac

Astronomy

Aug. 23, 2014 Rise Set
Actual Time 6:31 AM PDT 7:48 PM PDT
Civil Twilight 6:04 AM PDT 8:14 PM PDT
Nautical Twilight 5:32 AM PDT 8:46 PM PDT
Astronomical Twilight 4:59 AM PDT 9:20 PM PDT
Moon 4:53 AM PDT 6:35 PM PDT
Length of Visible Light 14h 10m
Length of Day
13h 16m
Tomorrow will be 2m 8s shorter.
Waning Crescent, 5% of the Moon is Illuminated
Today
Waning Crescent
Aug 25
New
Sep 2
First Quarter
Sep 8
Full
Sep 15
Last Quarter

Today's Extremes

State Highs State Lows

Community

WunderPhotos

Upload Photos

1,746,384 photos uploaded!

WunderBlogs® & News

By Dr. Jeff Masters
Director of Meteorology, Weather Underground
By Kari Strenfel
Meteorologist, Weather Underground
By Christopher C. Burt
Weather Historian, Weather Underground
August 23, 2014
August 23, 2014
August 22, 2014

Nearby

Snow Depth

Station Depth Elevation
Leavitt Lake 0 in 9400 ft
Leavitt Meadows 1 in 7200 ft
Blue Lakes 0 in 8000 ft
Ebbetts Pass 0 in 8700 ft
Forestdale Creek 0 in 8029 ft

Earthquake Activity

City Distance Mag. Time & Date
Coalinga, California 80 miles 2.5 7:03 AM PDT
2014-08-18
Berkeley, California 91 miles 2.6 7:41 PM PDT
2014-08-16
Minimum magnitude displayed is 2.5.

Coastal Water Temperatures

Place Temperature
Monterey, CA 63.0 °F
Port San Luis, CA 60.1 °F

Nearby Weather Stations